Time;durP1;ratioP1;P1;durP2;ratioP2;P2;SDS_P1;SDS_P2;PMS_P1;PMS_P2;Temp;Humidity;BMP_temperature;BMP_pressure;BME280_temperature;BME280_humidity;BME280_pressure;Samples;Min_cycle;Max_cycle;Signal;HPM_P1;HPM_P2
2023/06/11 00:01:05;;;;;;;13.17;12.17;;;21.70;99.90;;;;;;5027160;28;20192;-78
2023/06/11 00:03:33;;;;;;;13.03;12.33;;;21.60;99.90;;;;;;5016424;28;20923;-79
2023/06/11 00:05:59;;;;;;;13.00;12.40;;;21.60;99.90;;;;;;4999140;28;20447;-78
2023/06/11 00:08:24;;;;;;;14.00;13.30;;;21.60;99.90;;;;;;4999079;28;20516;-79
2023/06/11 00:10:50;;;;;;;13.83;13.03;;;21.70;99.90;;;;;;5023051;28;20199;-79
2023/06/11 00:13:15;;;;;;;14.80;13.70;;;21.70;99.90;;;;;;5012846;28;20195;-79
2023/06/11 00:15:41;;;;;;;16.10;15.00;;;21.70;99.90;;;;;;5010462;28;20216;-79
2023/06/11 00:18:06;;;;;;;15.33;14.33;;;21.70;99.90;;;;;;5017857;28;20220;-78
2023/06/11 00:20:32;;;;;;;15.53;14.63;;;21.70;99.90;;;;;;5013161;28;20200;-78
2023/06/11 00:22:58;;;;;;;14.70;13.70;;;21.70;99.90;;;;;;4996286;28;20212;-79
2023/06/11 00:25:23;;;;;;;15.20;14.30;;;21.60;99.90;;;;;;5004054;28;20545;-79
2023/06/11 00:27:49;;;;;;;14.30;13.50;;;21.50;99.90;;;;;;5010184;28;20209;-79
2023/06/11 00:30:16;;;;;;;15.33;13.90;;;21.40;99.90;;;;;;5000856;28;20593;-78
2023/06/11 00:32:41;;;;;;;15.47;14.23;;;21.40;99.90;;;;;;4994844;28;20204;-79
2023/06/11 00:35:08;;;;;;;14.70;13.70;;;21.30;99.90;;;;;;5015675;28;20439;-79
2023/06/11 00:37:35;;;;;;;16.23;15.10;;;21.30;99.90;;;;;;5017628;28;20228;-79
2023/06/11 00:40:01;;;;;;;16.63;15.40;;;21.30;99.90;;;;;;5004582;28;20438;-79
2023/06/11 00:42:27;;;;;;;14.87;13.90;;;21.20;99.90;;;;;;5018417;28;20543;-78
2023/06/11 00:44:54;;;;;;;14.87;13.83;;;21.20;99.90;;;;;;5023194;28;20514;-78
2023/06/11 00:47:20;;;;;;;15.30;14.20;;;21.20;99.90;;;;;;4992748;28;20760;-78
2023/06/11 00:49:46;;;;;;;15.60;14.60;;;21.20;99.90;;;;;;5008539;28;20489;-78
2023/06/11 00:52:14;;;;;;;15.90;14.13;;;21.10;99.90;;;;;;5012268;28;20466;-78
2023/06/11 00:54:41;;;;;;;14.60;13.70;;;21.10;99.90;;;;;;5021812;28;20445;-78
2023/06/11 00:57:07;;;;;;;14.80;14.00;;;21.10;99.90;;;;;;5012569;28;20483;-78
2023/06/11 00:59:34;;;;;;;13.83;13.13;;;21.10;99.90;;;;;;5006826;28;20427;-79
2023/06/11 01:02:10;;;;;;;15.87;14.90;;;21.10;99.90;;;;;;5016738;28;20200;-78
2023/06/11 01:04:39;;;;;;;14.93;14.03;;;21.00;99.90;;;;;;5024699;28;20508;-78
2023/06/11 01:07:07;;;;;;;15.30;14.50;;;21.00;99.90;;;;;;4995815;28;20542;-77
2023/06/11 01:09:33;;;;;;;16.43;15.17;;;20.90;99.90;;;;;;5025153;28;21141;-77
2023/06/11 01:12:02;;;;;;;15.60;14.57;;;20.80;99.90;;;;;;5021220;28;20443;-78
2023/06/11 01:14:27;;;;;;;15.73;14.50;;;20.80;99.90;;;;;;4984983;28;20933;-78
2023/06/11 01:17:04;;;;;;;13.63;12.87;;;20.70;99.90;;;;;;5016673;28;20473;-78
2023/06/11 01:19:54;;;;;;;14.77;13.63;;;20.70;99.90;;;;;;5024972;28;20262;-78
2023/06/11 01:22:50;;;;;;;14.20;13.40;;;20.70;99.90;;;;;;4983397;28;20497;-77
2023/06/11 01:25:50;;;;;;;14.57;13.77;;;20.70;99.90;;;;;;4979485;28;20443;-77
2023/06/11 01:28:20;;;;;;;14.80;13.73;;;20.50;99.90;;;;;;4946932;28;20791;-78
2023/06/11 01:30:49;;;;;;;15.60;14.60;;;20.50;99.90;;;;;;5012826;28;20517;-78
2023/06/11 01:33:18;;;;;;;14.87;14.07;;;20.50;99.90;;;;;;5016749;28;20461;-78
2023/06/11 01:35:44;;;;;;;15.33;14.40;;;20.50;99.90;;;;;;5004194;28;20442;-78
2023/06/11 01:38:10;;;;;;;14.93;13.77;;;20.50;99.90;;;;;;4992582;28;20479;-78
2023/06/11 01:40:36;;;;;;;14.67;13.80;;;20.50;99.90;;;;;;4997249;28;20467;-78
2023/06/11 01:43:04;;;;;;;14.50;13.60;;;20.50;99.90;;;;;;5018881;28;20725;-78
2023/06/11 01:45:32;;;;;;;15.40;14.40;;;20.50;99.90;;;;;;5016569;28;20184;-78
2023/06/11 01:47:58;;;;;;;13.97;13.07;;;20.50;99.90;;;;;;5013812;28;20439;-78
2023/06/11 01:50:24;;;;;;;15.57;14.07;;;20.50;99.90;;;;;;5020356;28;20432;-78
2023/06/11 01:52:51;;;;;;;15.17;14.37;;;20.50;99.90;;;;;;5017028;28;20941;-78
2023/06/11 01:55:17;;;;;;;14.63;13.77;;;20.60;99.90;;;;;;5015915;28;20427;-78
2023/06/11 01:57:43;;;;;;;14.00;13.00;;;20.50;99.90;;;;;;4994647;28;20486;-78
2023/06/11 02:00:10;;;;;;;15.10;14.30;;;20.50;99.90;;;;;;5011764;28;20189;-78
2023/06/11 02:02:37;;;;;;;14.73;13.70;;;20.60;99.90;;;;;;5014197;28;20466;-78
2023/06/11 02:05:03;;;;;;;13.40;12.63;;;20.40;99.90;;;;;;5016812;28;20430;-78
2023/06/11 02:07:28;;;;;;;15.03;13.87;;;20.40;99.90;;;;;;5016608;28;20456;-78
2023/06/11 02:09:54;;;;;;;14.10;13.30;;;20.60;99.90;;;;;;5013075;28;20652;-78
2023/06/11 02:12:20;;;;;;;14.17;13.30;;;20.40;99.90;;;;;;4993733;28;20294;-77
2023/06/11 02:14:45;;;;;;;13.87;13.07;;;20.30;99.90;;;;;;5023868;28;20607;-77
2023/06/11 02:17:11;;;;;;;15.17;14.13;;;20.30;99.90;;;;;;5018181;28;20241;-77
2023/06/11 02:19:37;;;;;;;14.83;13.93;;;20.40;99.90;;;;;;5006751;28;20180;-78
2023/06/11 02:22:02;;;;;;;12.60;11.90;;;20.40;99.90;;;;;;4988703;28;20212;-78
2023/06/11 02:24:28;;;;;;;13.93;13.10;;;20.60;99.90;;;;;;5019517;28;20267;-78
2023/06/11 02:26:54;;;;;;;14.83;13.73;;;20.60;99.90;;;;;;5017175;28;20220;-78
2023/06/11 02:29:19;;;;;;;13.77;12.93;;;20.70;99.90;;;;;;5019804;28;20181;-78
2023/06/11 02:31:45;;;;;;;13.33;12.60;;;20.70;99.90;;;;;;5014419;28;20191;-76
2023/06/11 02:34:11;;;;;;;14.97;14.07;;;20.60;99.90;;;;;;5017012;28;20427;-77
2023/06/11 02:36:37;;;;;;;14.57;13.67;;;20.70;99.90;;;;;;4996028;28;20215;-78
2023/06/11 02:39:03;;;;;;;14.60;13.70;;;20.60;99.90;;;;;;5008110;28;20190;-76
2023/06/11 02:41:29;;;;;;;13.80;13.00;;;20.70;99.90;;;;;;5034652;28;20176;-77
2023/06/11 02:43:55;;;;;;;15.13;14.20;;;20.60;99.90;;;;;;5013661;28;20454;-78
2023/06/11 02:46:21;;;;;;;15.47;14.43;;;20.60;99.90;;;;;;5019821;28;20441;-77
2023/06/11 02:48:47;;;;;;;14.77;13.90;;;20.40;99.90;;;;;;4995749;28;20447;-78
2023/06/11 02:51:12;;;;;;;14.60;13.80;;;20.40;99.90;;;;;;4996723;28;20977;-78
2023/06/11 02:53:38;;;;;;;14.27;13.33;;;20.40;99.90;;;;;;5014027;28;20974;-77
2023/06/11 02:56:04;;;;;;;13.43;12.73;;;20.30;99.90;;;;;;5000702;28;20270;-78
2023/06/11 02:58:29;;;;;;;13.40;12.50;;;20.20;99.90;;;;;;4994614;28;20220;-78
2023/06/11 03:00:55;;;;;;;14.13;13.23;;;20.20;99.90;;;;;;5015396;28;20188;-77
2023/06/11 03:03:21;;;;;;;14.40;13.60;;;20.20;99.90;;;;;;4993440;28;20198;-77
2023/06/11 03:05:46;;;;;;;13.93;13.13;;;20.20;99.90;;;;;;5018940;28;20185;-76
2023/06/11 03:08:12;;;;;;;14.60;13.67;;;20.10;99.90;;;;;;5011530;28;20209;-77
2023/06/11 03:10:38;;;;;;;14.97;13.97;;;20.00;99.90;;;;;;5014700;28;20191;-78
2023/06/11 03:13:04;;;;;;;14.47;13.57;;;20.10;99.90;;;;;;5012561;28;20201;-77
2023/06/11 03:15:30;;;;;;;14.90;13.90;;;20.10;99.90;;;;;;5015053;28;20283;-78
2023/06/11 03:17:55;;;;;;;14.80;13.90;;;20.00;99.90;;;;;;5015455;28;20762;-77
2023/06/11 03:20:21;;;;;;;15.00;14.20;;;19.90;99.90;;;;;;5017310;28;20977;-78
2023/06/11 03:22:47;;;;;;;14.60;13.77;;;20.00;99.90;;;;;;5019781;28;20286;-76
2023/06/11 03:25:12;;;;;;;14.77;13.87;;;20.00;99.90;;;;;;5022943;28;20196;-77
2023/06/11 03:27:38;;;;;;;13.63;12.90;;;20.20;99.90;;;;;;5023417;28;20303;-77
2023/06/11 03:30:05;;;;;;;15.40;14.10;;;20.20;99.90;;;;;;5023067;28;20729;-78
2023/06/11 03:32:31;;;;;;;14.43;13.63;;;20.10;99.90;;;;;;5020009;28;20783;-77
2023/06/11 03:34:56;;;;;;;13.90;13.00;;;20.20;99.90;;;;;;5014488;28;20490;-78
2023/06/11 03:37:22;;;;;;;14.93;13.77;;;20.20;99.90;;;;;;5002871;28;20226;-77
2023/06/11 03:39:48;;;;;;;14.17;13.33;;;20.20;99.90;;;;;;5004209;28;20667;-78
2023/06/11 03:42:13;;;;;;;14.97;14.10;;;20.20;99.90;;;;;;5016112;28;20464;-78
2023/06/11 03:44:39;;;;;;;14.20;13.30;;;20.20;99.90;;;;;;5017034;28;20180;-78
2023/06/11 03:47:05;;;;;;;13.83;12.80;;;20.30;99.90;;;;;;5016609;28;20213;-79
2023/06/11 03:49:30;;;;;;;14.20;13.20;;;20.40;99.90;;;;;;5019768;28;20261;-78
2023/06/11 03:51:56;;;;;;;15.07;13.80;;;20.30;99.90;;;;;;5016357;28;20196;-78
2023/06/11 03:54:22;;;;;;;13.47;12.77;;;20.30;99.90;;;;;;5014987;28;20254;-78
2023/06/11 03:56:47;;;;;;;13.60;12.80;;;20.40;99.90;;;;;;5019839;28;20230;-78
2023/06/11 03:59:13;;;;;;;13.53;12.83;;;20.40;99.90;;;;;;5012035;28;20224;-78
2023/06/11 04:01:39;;;;;;;13.67;12.80;;;20.40;99.90;;;;;;4998730;28;20192;-79
2023/06/11 04:04:05;;;;;;;13.67;12.87;;;20.60;99.90;;;;;;5016742;28;20196;-77
2023/06/11 04:06:38;;;;;;;13.33;12.57;;;20.60;99.90;;;;;;5017429;28;20733;-77
2023/06/11 04:09:07;;;;;;;14.20;13.07;;;20.60;99.90;;;;;;5013360;28;20212;-77
2023/06/11 04:11:33;;;;;;;14.53;13.67;;;20.40;99.90;;;;;;5013573;28;20488;-76
2023/06/11 04:13:59;;;;;;;12.70;12.00;;;20.50;99.90;;;;;;5012572;28;20434;-77
2023/06/11 04:16:24;;;;;;;13.70;12.73;;;20.50;99.90;;;;;;4991037;28;20735;-77
2023/06/11 04:18:50;;;;;;;13.10;12.20;;;20.50;99.90;;;;;;5019465;28;20286;-79
2023/06/11 04:21:16;;;;;;;13.07;12.37;;;20.40;99.90;;;;;;5014616;28;20184;-78
2023/06/11 04:23:42;;;;;;;13.77;12.97;;;20.30;99.90;;;;;;5009614;28;20209;-78
2023/06/11 04:26:07;;;;;;;13.90;13.10;;;20.30;99.90;;;;;;4995994;28;20485;-78
2023/06/11 04:28:37;;;;;;;13.50;12.67;;;20.20;99.90;;;;;;5014375;28;20251;-78
2023/06/11 04:31:04;;;;;;;13.23;12.50;;;20.20;99.90;;;;;;5001013;28;20187;-78
2023/06/11 04:33:33;;;;;;;13.97;13.07;;;20.10;99.90;;;;;;5024288;28;20517;-78
2023/06/11 04:36:04;;;;;;;13.97;12.90;;;20.10;99.90;;;;;;5031971;28;20449;-79
2023/06/11 04:38:31;;;;;;;13.80;12.90;;;20.40;99.90;;;;;;5022705;28;20430;-79
2023/06/11 04:40:57;;;;;;;13.23;12.53;;;20.50;99.90;;;;;;5040012;28;20410;-77
2023/06/11 04:43:23;;;;;;;13.00;12.30;;;20.80;99.90;;;;;;5027651;28;20864;-78
2023/06/11 04:45:55;;;;;;;13.17;12.20;;;21.00;99.90;;;;;;5026813;28;20416;-78
2023/06/11 04:48:27;;;;;;;14.03;12.90;;;21.20;99.90;;;;;;5023617;28;20569;-78
2023/06/11 04:50:55;;;;;;;12.03;11.27;;;21.50;99.90;;;;;;5023292;28;20832;-78
2023/06/11 04:53:27;;;;;;;12.70;12.10;;;21.70;99.90;;;;;;5000100;28;20443;-78
2023/06/11 04:55:54;;;;;;;12.83;11.77;;;22.00;99.90;;;;;;5013391;28;20517;-78
2023/06/11 04:58:26;;;;;;;12.37;11.70;;;22.00;99.90;;;;;;5008708;28;20442;-78
2023/06/11 05:00:57;;;;;;;12.07;11.47;;;22.20;99.90;;;;;;5022697;28;20469;-79
2023/06/11 05:03:27;;;;;;;11.80;11.17;;;22.50;99.90;;;;;;5018048;28;20523;-78
2023/06/11 05:05:53;;;;;;;12.63;11.83;;;22.90;99.90;;;;;;5024360;28;20972;-78
2023/06/11 05:08:24;;;;;;;11.83;11.33;;;23.30;99.90;;;;;;5014138;28;20479;-79
2023/06/11 05:10:53;;;;;;;12.23;11.07;;;23.60;99.90;;;;;;5019101;28;20447;-78
2023/06/11 05:13:24;;;;;;;11.80;11.20;;;24.00;99.90;;;;;;5015995;28;20463;-78
2023/06/11 05:15:57;;;;;;;12.13;11.27;;;24.20;99.90;;;;;;5003300;28;20858;-78
2023/06/11 05:18:26;;;;;;;11.60;10.80;;;24.50;99.90;;;;;;5013489;28;20436;-79
2023/06/11 05:20:53;;;;;;;10.87;10.33;;;24.70;99.90;;;;;;5020240;28;20419;-79
2023/06/11 05:23:21;;;;;;;10.20;9.57;;;24.80;99.90;;;;;;5009807;28;20479;-78
2023/06/11 05:25:47;;;;;;;10.77;10.20;;;25.20;99.90;;;;;;5016015;28;20427;-79
2023/06/11 05:28:14;;;;;;;11.17;10.57;;;25.50;99.90;;;;;;5011266;28;20842;-78
2023/06/11 05:30:45;;;;;;;10.60;10.10;;;25.90;99.90;;;;;;5012379;28;20430;-79
2023/06/11 05:33:16;;;;;;;10.50;10.10;;;26.30;98.40;;;;;;5011484;28;20490;-78
2023/06/11 05:35:43;;;;;;;10.37;9.53;;;26.70;97.00;;;;;;4997578;28;20432;-79
2023/06/11 05:38:09;;;;;;;9.00;8.50;;;27.00;95.40;;;;;;5016781;28;20922;-79
2023/06/11 05:40:36;;;;;;;9.33;9.00;;;27.40;94.50;;;;;;5018390;28;20470;-78
2023/06/11 05:43:04;;;;;;;9.07;8.77;;;27.80;92.80;;;;;;5005540;28;20428;-79
2023/06/11 05:45:31;;;;;;;9.60;8.90;;;27.80;90.70;;;;;;5015512;28;20438;-79
2023/06/11 05:47:56;;;;;;;8.70;8.30;;;28.10;89.80;;;;;;5012883;28;20470;-79
2023/06/11 05:50:22;;;;;;;9.53;8.93;;;28.30;88.10;;;;;;5009854;28;21112;-79
2023/06/11 05:52:48;;;;;;;10.03;9.07;;;28.70;86.10;;;;;;5009689;28;20255;-79
2023/06/11 05:55:14;;;;;;;9.10;8.70;;;28.90;83.60;;;;;;5020418;28;20176;-79
2023/06/11 05:57:47;;;;;;;9.10;8.70;;;29.00;81.50;;;;;;5015709;28;20493;-79
2023/06/11 06:00:13;;;;;;;9.83;9.43;;;28.80;79.50;;;;;;5022380;28;20812;-79
2023/06/11 06:02:40;;;;;;;9.70;9.17;;;28.70;79.80;;;;;;4994780;28;20582;-80
2023/06/11 06:05:06;;;;;;;9.20;8.80;;;29.30;78.40;;;;;;5015729;28;20486;-79
2023/06/11 06:07:32;;;;;;;9.33;8.93;;;29.70;75.40;;;;;;5024565;28;20484;-80
2023/06/11 06:09:58;;;;;;;9.07;8.67;;;30.00;73.90;;;;;;5004795;28;21064;-79
2023/06/11 06:12:23;;;;;;;8.43;7.87;;;30.10;71.90;;;;;;5013952;28;20188;-80
2023/06/11 06:14:49;;;;;;;8.20;7.90;;;30.50;72.00;;;;;;5016995;28;20214;-79
2023/06/11 06:17:15;;;;;;;8.20;7.80;;;30.80;70.80;;;;;;5017903;28;20601;-79
2023/06/11 06:19:40;;;;;;;8.90;8.47;;;30.50;66.20;;;;;;5020701;28;20684;-78
2023/06/11 06:22:06;;;;;;;9.00;8.37;;;30.00;66.10;;;;;;5019323;28;20299;-80
2023/06/11 06:24:31;;;;;;;8.50;8.17;;;30.60;66.40;;;;;;5022222;28;20417;-78
2023/06/11 06:26:58;;;;;;;8.50;8.20;;;31.30;64.00;;;;;;5020922;28;20282;-78
2023/06/11 06:29:25;;;;;;;6.70;6.60;;;31.60;58.00;;;;;;5024545;28;20207;-79
2023/06/11 06:32:08;;;;;;;6.80;6.60;;;31.80;56.60;;;;;;5030155;28;20458;-78
2023/06/11 06:34:35;;;;;;;7.63;7.43;;;32.10;55.30;;;;;;5024640;28;20459;-80
2023/06/11 06:37:01;;;;;;;7.83;7.20;;;32.20;54.90;;;;;;5025480;28;20492;-79
2023/06/11 06:39:27;;;;;;;7.77;7.47;;;32.70;54.10;;;;;;5016746;28;20477;-79
2023/06/11 06:41:53;;;;;;;7.83;7.60;;;32.60;53.20;;;;;;5021666;28;20922;-80
2023/06/11 06:44:18;;;;;;;8.60;8.10;;;32.70;53.00;;;;;;5014727;28;20453;-79
2023/06/11 06:46:44;;;;;;;7.23;6.97;;;32.50;52.40;;;;;;5016908;28;20326;-79
2023/06/11 06:49:09;;;;;;;8.23;7.63;;;32.50;52.10;;;;;;4998889;28;20238;-79
2023/06/11 06:51:37;;;;;;;8.13;7.73;;;32.50;52.40;;;;;;5005800;28;20184;-79
2023/06/11 06:54:03;;;;;;;8.23;7.60;;;32.90;51.90;;;;;;5000422;28;20302;-79
2023/06/11 06:56:29;;;;;;;7.97;7.67;;;32.80;50.40;;;;;;5003638;28;20455;-80
2023/06/11 06:58:55;;;;;;;7.30;7.03;;;32.40;50.50;;;;;;5010588;28;21021;-79
2023/06/11 07:01:23;;;;;;;7.63;7.43;;;32.30;50.00;;;;;;5019656;28;20514;-79
2023/06/11 07:03:48;;;;;;;7.63;7.33;;;31.80;51.00;;;;;;5014758;28;20188;-79
2023/06/11 07:06:16;;;;;;;6.90;6.70;;;32.50;50.50;;;;;;5020705;28;20483;-78
2023/06/11 07:08:42;;;;;;;7.50;7.10;;;31.70;50.00;;;;;;5014608;28;20212;-78
2023/06/11 07:11:07;;;;;;;7.70;7.27;;;31.80;50.70;;;;;;5023201;28;20479;-79
2023/06/11 07:13:34;;;;;;;7.83;7.63;;;32.10;50.50;;;;;;5017887;28;20325;-79
2023/06/11 07:15:59;;;;;;;7.10;6.80;;;32.20;50.00;;;;;;5012345;28;20670;-78
2023/06/11 07:18:27;;;;;;;7.33;7.23;;;31.40;50.30;;;;;;5020646;28;20425;-78
2023/06/11 07:20:53;;;;;;;7.23;6.80;;;32.40;50.00;;;;;;5013647;28;20548;-78
2023/06/11 07:23:19;;;;;;;7.97;7.57;;;32.00;50.00;;;;;;5008087;28;20443;-79
2023/06/11 07:25:45;;;;;;;7.97;7.57;;;32.30;49.90;;;;;;4994583;28;20199;-79
2023/06/11 07:28:11;;;;;;;11.40;10.90;;;32.50;49.60;;;;;;5000696;28;20317;-78
2023/06/11 07:30:37;;;;;;;7.53;7.33;;;32.90;49.50;;;;;;4994503;28;20450;-78
2023/06/11 07:33:02;;;;;;;7.87;7.33;;;33.10;48.60;;;;;;4998761;28;20192;-78
2023/06/11 07:35:28;;;;;;;7.53;7.30;;;32.20;49.10;;;;;;4995075;28;20195;-78
2023/06/11 07:37:55;;;;;;;19.70;18.00;;;31.90;49.40;;;;;;5016525;28;20211;-79
2023/06/11 07:40:24;;;;;;;7.30;7.10;;;32.40;49.50;;;;;;5016439;28;20180;-77
2023/06/11 07:42:49;;;;;;;7.47;7.27;;;32.40;48.80;;;;;;5019049;28;20702;-79
2023/06/11 07:45:18;;;;;;;7.67;7.27;;;32.20;48.50;;;;;;5011739;28;20828;-80
2023/06/11 07:47:44;;;;;;;7.57;7.27;;;32.90;48.70;;;;;;5016876;28;20221;-79
2023/06/11 07:50:11;;;;;;;7.10;6.90;;;33.80;47.90;;;;;;4992631;28;20444;-79
2023/06/11 07:52:37;;;;;;;7.97;7.47;;;34.30;47.60;;;;;;5019272;28;20427;-79
2023/06/11 07:55:03;;;;;;;6.80;6.70;;;34.30;46.90;;;;;;5011156;28;20447;-78
2023/06/11 07:57:28;;;;;;;6.20;6.00;;;34.90;46.50;;;;;;5016446;28;20430;-78
2023/06/11 07:59:57;;;;;;;7.20;6.60;;;35.30;45.60;;;;;;5004892;28;20996;-79
2023/06/11 08:02:22;;;;;;;6.70;6.50;;;35.60;45.00;;;;;;5012105;28;20203;-79
2023/06/11 08:04:48;;;;;;;6.30;6.13;;;35.60;44.90;;;;;;5019639;28;20473;-76
2023/06/11 08:07:14;;;;;;;7.07;6.87;;;35.90;44.80;;;;;;4996574;28;20216;-78
2023/06/11 08:09:39;;;;;;;7.00;6.80;;;34.60;44.80;;;;;;4996980;28;20254;-78
2023/06/11 08:12:06;;;;;;;7.07;6.87;;;35.50;45.30;;;;;;5023847;28;20207;-78
2023/06/11 08:14:33;;;;;;;6.37;6.27;;;35.60;44.60;;;;;;5015653;28;20226;-79
2023/06/11 08:16:58;;;;;;;7.50;6.93;;;35.80;44.70;;;;;;5011136;28;20431;-78
2023/06/11 08:19:24;;;;;;;6.70;6.30;;;36.00;44.50;;;;;;5020325;28;20454;-79
2023/06/11 08:21:49;;;;;;;6.13;6.03;;;36.40;44.10;;;;;;5020005;28;20832;-78
2023/06/11 08:24:18;;;;;;;7.00;6.50;;;36.70;43.40;;;;;;5026269;28;20231;-78
2023/06/11 08:26:44;;;;;;;6.60;6.40;;;36.30;43.60;;;;;;5019035;28;20222;-79
2023/06/11 08:29:15;;;;;;;5.57;5.47;;;37.10;43.60;;;;;;5019874;28;20419;-80
2023/06/11 08:31:41;;;;;;;6.10;5.87;;;;;;;;;;5007348;28;20501;-80
2023/06/11 08:34:07;;;;;;;5.13;5.10;;;38.50;41.90;;;;;;4999043;28;20424;-80
2023/06/11 08:36:33;;;;;;;5.03;4.93;;;39.00;41.30;;;;;;5016566;28;20740;-80
2023/06/11 08:39:02;;;;;;;5.50;5.37;;;38.70;41.30;;;;;;5006101;28;20168;-79
2023/06/11 08:41:31;;;;;;;7.40;6.83;;;38.20;41.30;;;;;;5004795;28;20439;-79
2023/06/11 08:44:05;;;;;;;5.20;5.10;;;37.70;41.20;;;;;;5023796;28;20406;-80
2023/06/11 08:46:35;;;;;;;5.40;5.30;;;37.80;41.20;;;;;;4998801;28;20435;-81
2023/06/11 08:49:12;;;;;;;5.43;5.13;;;38.10;40.90;;;;;;5020272;28;20515;-80
2023/06/11 08:51:38;;;;;;;5.47;5.27;;;36.90;41.30;;;;;;4996823;28;20526;-82
2023/06/11 08:54:13;;;;;;;5.40;5.30;;;37.20;41.20;;;;;;5000168;28;20518;-80
2023/06/11 08:56:38;;;;;;;6.03;5.60;;;36.20;41.40;;;;;;5003039;28;20810;-80
2023/06/11 08:59:06;;;;;;;5.37;5.27;;;36.90;41.40;;;;;;5003294;28;20427;-78
2023/06/11 09:01:32;;;;;;;5.30;5.20;;;37.30;41.10;;;;;;5001105;28;20702;-79
2023/06/11 09:03:59;;;;;;;5.83;5.63;;;37.80;40.90;;;;;;5033913;28;20427;-79
2023/06/11 09:06:24;;;;;;;5.70;5.50;;;38.00;40.60;;;;;;5026943;28;20436;-78
2023/06/11 09:09:02;;;;;;;23.50;22.07;;;38.60;40.50;;;;;;4999155;28;20472;-82
2023/06/11 09:11:35;;;;;;;4.67;4.67;;;38.70;40.10;;;;;;4996659;28;20195;-79
2023/06/11 09:14:02;;;;;;;5.43;5.07;;;37.20;39.90;;;;;;5015391;28;20765;-80
2023/06/11 09:16:28;;;;;;;4.70;4.67;;;37.50;40.50;;;;;;5014461;28;20449;-80
2023/06/11 09:18:56;;;;;;;5.47;5.17;;;36.40;40.60;;;;;;5016464;28;20458;-79
2023/06/11 09:21:25;;;;;;;5.00;4.90;;;35.80;40.60;;;;;;5009725;28;20446;-79
2023/06/11 09:23:51;;;;;;;6.07;5.87;;;35.00;41.00;;;;;;5011859;28;20460;-80
2023/06/11 09:26:18;;;;;;;5.87;5.70;;;34.10;42.00;;;;;;4995814;28;20447;-79
2023/06/11 09:28:46;;;;;;;5.37;5.33;;;35.20;42.30;;;;;;5004181;28;20946;-80
2023/06/11 09:31:12;;;;;;;5.33;5.30;;;36.10;40.60;;;;;;5016846;28;20426;-83
2023/06/11 09:33:39;;;;;;;6.07;5.63;;;35.60;40.30;;;;;;5020073;28;20490;-80
2023/06/11 09:36:05;;;;;;;5.77;5.67;;;36.10;40.90;;;;;;4997839;28;20475;-79
2023/06/11 09:38:37;;;;;;;5.87;5.70;;;36.70;40.20;;;;;;5022241;28;20235;-79
2023/06/11 09:41:08;;;;;;;5.70;5.43;;;37.20;39.40;;;;;;4997030;28;20427;-79
2023/06/11 09:43:34;;;;;;;5.43;5.13;;;36.80;39.40;;;;;;5018758;28;20438;-80
2023/06/11 09:46:01;;;;;;;5.13;5.03;;;37.30;38.70;;;;;;4999160;28;20760;-79
2023/06/11 09:48:28;;;;;;;5.83;5.63;;;37.10;38.20;;;;;;5017512;28;20447;-77
2023/06/11 09:50:54;;;;;;;5.70;5.60;;;34.90;38.80;;;;;;4998343;28;20436;-80
2023/06/11 09:53:21;;;;;;;5.70;5.60;;;36.20;39.00;;;;;;5001260;28;20445;-80
2023/06/11 09:55:49;;;;;;;6.70;6.40;;;36.80;38.40;;;;;;5016456;28;20204;-78
2023/06/11 09:58:17;;;;;;;5.60;5.50;;;36.60;39.00;;;;;;4999050;28;20517;-78
2023/06/11 10:00:46;;;;;;;6.30;5.67;;;38.00;37.90;;;;;;5018541;28;20538;-79
2023/06/11 10:03:12;;;;;;;6.23;5.80;;;37.60;37.60;;;;;;4995882;28;20422;-79
2023/06/11 10:05:38;;;;;;;5.70;5.50;;;38.10;37.40;;;;;;5013816;28;20418;-78
2023/06/11 10:08:16;;;;;;;7.40;6.63;;;36.90;37.40;;;;;;4998926;28;20196;-78
2023/06/11 10:10:44;;;;;;;6.47;6.27;;;37.60;37.50;;;;;;4996837;28;20263;-80
2023/06/11 10:13:10;;;;;;;10.63;10.03;;;38.50;36.90;;;;;;5017064;28;20427;-79
2023/06/11 10:15:37;;;;;;;5.73;5.40;;;38.80;37.10;;;;;;5013112;28;20514;-77
2023/06/11 10:18:12;;;;;;;6.37;5.97;;;37.80;36.30;;;;;;4999015;28;20209;-78
2023/06/11 10:20:54;;;;;;;6.40;6.20;;;37.70;37.10;;;;;;5017398;28;20440;-79
2023/06/11 10:23:20;;;;;;;6.53;5.90;;;37.70;36.90;;;;;;5022194;28;20434;-78
2023/06/11 10:25:57;;;;;;;6.50;6.10;;;38.40;36.80;;;;;;5012052;28;20739;-78
2023/06/11 10:28:38;;;;;;;5.53;5.53;;;38.60;36.40;;;;;;5025146;28;20434;-79
2023/06/11 10:31:06;;;;;;;6.40;5.87;;;38.30;36.30;;;;;;5008792;28;20419;-78
2023/06/11 10:33:50;;;;;;;6.17;5.87;;;39.10;35.80;;;;;;5015147;28;20441;-77
2023/06/11 10:36:31;;;;;;;6.10;5.90;;;38.70;35.60;;;;;;5020316;28;20419;-79
2023/06/11 10:39:10;;;;;;;6.20;6.00;;;38.10;36.10;;;;;;4995976;28;21026;-76
2023/06/11 10:41:40;;;;;;;6.73;6.43;;;38.40;35.80;;;;;;4997760;28;20489;-77
2023/06/11 10:44:07;;;;;;;6.30;6.00;;;38.20;35.90;;;;;;5010731;28;20506;-76
2023/06/11 10:46:43;;;;;;;6.03;5.93;;;38.00;36.20;;;;;;4994829;28;20443;-78
2023/06/11 10:49:14;;;;;;;6.83;6.53;;;38.20;35.70;;;;;;5004425;28;20435;-76
2023/06/11 10:51:40;;;;;;;6.10;5.90;;;37.20;36.10;;;;;;5015566;28;21143;-77
2023/06/11 10:54:07;;;;;;;5.80;5.60;;;37.90;35.90;;;;;;4989515;28;20526;-77
2023/06/11 10:56:37;;;;;;;6.00;5.90;;;38.20;36.10;;;;;;5019636;28;20438;-79
2023/06/11 10:59:07;;;;;;;8.03;7.43;;;38.60;35.50;;;;;;4995986;28;20941;-78
2023/06/11 11:01:33;;;;;;;6.40;6.30;;;38.90;35.50;;;;;;5021327;28;20490;-77
2023/06/11 11:04:01;;;;;;;5.93;5.80;;;39.40;35.10;;;;;;4996074;28;20474;-77
2023/06/11 11:06:28;;;;;;;5.97;5.80;;;39.10;35.10;;;;;;4998980;28;20756;-77
2023/06/11 11:08:57;;;;;;;7.00;6.80;;;38.40;35.30;;;;;;5013499;28;20529;-77
2023/06/11 11:11:24;;;;;;;6.00;5.80;;;38.70;35.20;;;;;;5013065;28;20407;-77
2023/06/11 11:13:50;;;;;;;6.83;6.53;;;39.40;34.50;;;;;;5007354;28;20570;-78
2023/06/11 11:16:19;;;;;;;6.87;6.60;;;40.00;34.30;;;;;;5000160;28;20489;-75
2023/06/11 11:18:47;;;;;;;6.60;6.30;;;39.30;34.50;;;;;;4991974;28;20513;-77
2023/06/11 11:21:14;;;;;;;6.63;6.33;;;38.20;34.10;;;;;;5002105;28;20419;-76
2023/06/11 11:23:41;;;;;;;7.13;6.93;;;38.90;34.90;;;;;;4995204;28;20438;-77
2023/06/11 11:26:06;;;;;;;7.20;6.87;;;39.50;34.20;;;;;;4998052;28;20412;-78
2023/06/11 11:28:32;;;;;;;6.40;6.20;;;39.60;34.00;;;;;;5013027;28;20431;-77
2023/06/11 11:30:59;;;;;;;6.00;5.90;;;38.00;34.30;;;;;;5013461;28;20179;-78
2023/06/11 11:33:25;;;;;;;6.63;6.43;;;37.70;34.70;;;;;;5009129;28;20419;-76
2023/06/11 11:35:54;;;;;;;7.20;6.80;;;38.00;35.10;;;;;;5014824;28;20525;-78
2023/06/11 11:38:22;;;;;;;6.73;6.40;;;38.80;34.50;;;;;;5017974;28;20558;-77
2023/06/11 11:40:57;;;;;;;6.20;5.97;;;39.10;34.80;;;;;;5007739;28;20422;-76
2023/06/11 11:43:23;;;;;;;6.87;6.67;;;39.80;35.00;;;;;;5022300;28;20521;-77
2023/06/11 11:45:49;;;;;;;6.10;6.00;;;40.70;34.40;;;;;;5018943;28;20572;-78
2023/06/11 11:48:16;;;;;;;8.00;7.50;;;41.10;34.10;;;;;;5017373;28;20865;-78
2023/06/11 11:50:44;;;;;;;6.43;6.30;;;40.90;34.10;;;;;;5001262;28;20423;-77
2023/06/11 11:53:15;;;;;;;5.60;5.50;;;40.90;34.00;;;;;;5007172;28;20427;-78
2023/06/11 11:55:47;;;;;;;6.33;6.13;;;40.90;33.80;;;;;;5019279;28;20423;-76
2023/06/11 11:58:16;;;;;;;6.30;6.20;;;40.90;33.70;;;;;;5015768;28;20479;-78
2023/06/11 12:00:52;;;;;;;7.13;6.80;;;41.20;33.20;;;;;;5022644;28;20438;-77
2023/06/11 12:03:22;;;;;;;5.90;5.80;;;41.30;33.30;;;;;;5016567;28;20430;-78
2023/06/11 12:06:00;;;;;;;6.87;6.40;;;40.70;33.60;;;;;;5017740;28;20434;-79
2023/06/11 12:08:28;;;;;;;6.77;6.47;;;40.20;33.70;;;;;;5000237;28;20469;-78
2023/06/11 12:10:54;;;;;;;6.80;6.60;;;39.90;33.70;;;;;;5013423;28;20431;-79
2023/06/11 12:13:19;;;;;;;6.43;6.33;;;39.10;34.00;;;;;;4999436;28;20498;-78
2023/06/11 12:15:45;;;;;;;6.80;6.60;;;39.70;33.80;;;;;;5023498;28;21027;-77
2023/06/11 12:18:11;;;;;;;6.90;6.70;;;39.90;33.80;;;;;;5028769;28;20219;-75
2023/06/11 12:20:36;;;;;;;6.07;5.77;;;40.30;33.40;;;;;;5032485;28;20451;-78
2023/06/11 12:23:03;;;;;;;8.00;7.30;;;39.40;32.40;;;;;;5035585;28;20212;-78
2023/06/11 12:25:30;;;;;;;7.70;7.00;;;39.80;33.20;;;;;;5036369;28;20650;-79
2023/06/11 12:27:56;;;;;;;8.53;7.93;;;40.30;33.10;;;;;;5018895;28;20535;-78
2023/06/11 12:30:22;;;;;;;7.20;6.80;;;40.80;33.10;;;;;;4994661;28;20523;-79
2023/06/11 12:32:48;;;;;;;6.27;6.07;;;40.60;32.70;;;;;;5013222;28;20192;-79
2023/06/11 12:35:14;;;;;;;6.90;6.60;;;40.80;32.20;;;;;;5015846;28;20196;-80
2023/06/11 12:37:40;;;;;;;6.97;6.77;;;40.60;32.30;;;;;;5004565;28;20268;-79
2023/06/11 12:40:07;;;;;;;7.10;6.80;;;40.00;32.60;;;;;;5018303;28;20443;-78